Latest Coastal Weather Observations for Minlaton Airport

IDS60701

Issued at 11:35 am CDT Sunday 23 November 2014 (issued every 10 minutes, with the page automatically refreshed every 10 minutes)

About coastal observations | Map of coastal stations | Coastal observations for SA | Marine services | Other Formats
Station Details ID: 022031 Name: MINLATON AERO Lat: -34.75 Lon: 137.53 Height: 32.0 m
Data from the previous 72 hours. | See also: Recent months at Minlaton Airport
Date/Time
CDT
Temp

°C
Wind Pressure Rain
since 9am
mm
Weather Cloud Vis
km
Sea
Height
m
Swell
Dir
 
Speed
knots
Gust
knots
hPa Trend Height
m
Period
s
Dir
23/11:30am 22.8 W 10 13 1012.6 - 0.0 - - - - - - -
23/11:00am 22.4 WSW 9 12 1012.2 - 0.0 - - - - - - -
23/10:30am 22.7 S 3 5 1012.1 - 0.0 - - - - - - -
23/10:00am 21.2 NW 4 6 1012.5 - 0.0 - - - - - - -
23/09:30am 19.9 SW 2 5 1012.4 - 0.0 - - - - - - -
23/09:00am 19.3 ESE 6 9 1012.1 - 2.6 - - - - - - -
23/08:30am 18.1 ESE 9 11 1011.9 - 2.6 - - - - - - -
23/08:00am 16.9 ESE 6 8 1011.8 - 2.6 - - - - - - -
23/07:30am 14.8 E 7 8 1012.0 - 2.6 - - - - - - -
23/07:00am 13.0 E 8 9 1012.2 - 2.6 - - - - - - -
23/06:30am 11.2 E 8 9 1011.9 - 2.6 - - - - - - -
23/06:00am 10.9 ENE 8 8 1012.1 - 2.6 - - - - - - -
23/05:30am 10.9 ENE 8 9 1012.2 - 2.6 - - - - - - -
23/05:00am 10.7 E 5 6 1012.0 - 2.6 - - - - - - -
23/04:30am 10.2 SSE 4 4 1011.9 - 2.6 - - - - - - -
23/04:00am 11.2 E 4 5 1012.0 - 2.6 - - - - - - -
23/03:30am 11.1 ESE 6 7 1011.9 - 2.6 - - - - - - -
23/03:00am 11.5 S 4 5 1011.9 - 2.6 - - - - - - -
23/02:30am 12.0 SE 6 7 1012.0 - 2.6 - - - - - - -
23/02:00am 12.7 ESE 8 8 1012.1 - 2.6 - - - - - - -
23/01:30am 13.4 SE 8 10 1012.3 - 2.6 - - - - - - -
23/01:00am 12.1 ESE 6 7 1012.4 - 2.6 - - - - - - -
23/12:30am 12.6 SSE 5 6 1012.8 - 2.6 - - - - - - -
23/12:00am 12.5 SSE 6 7 1012.8 - 2.6 - - - - - - -
 
Date/Time
CDT
Temp

°C
Wind Pressure Rain
since 9am
mm
Weather Cloud Vis
km
Sea
Height
m
Swell
Dir
 
Speed
knots
Gust
knots
hPa Trend Height
m
Period
s
Dir
22/11:30pm 13.3 SSE 7 8 1012.9 - 2.6 - - - - - - -
22/11:00pm 13.4 SSE 8 9 1012.7 - 2.6 - - - - - - -
22/10:30pm 13.9 S 8 10 1012.7 - 2.6 - - - - - - -
22/10:00pm 15.3 SSW 9 12 1012.5 - 2.4 - - - - - - -
22/09:30pm 15.7 SSW 7 9 1011.9 - 2.4 - - - - - - -
22/09:00pm 16.2 SSW 10 14 1011.3 - 2.4 - - - - - - -
22/08:30pm 17.5 S 11 14 1011.0 - 2.4 - - - - - - -
22/08:00pm 18.7 S 11 16 1010.5 - 2.4 - - - - - - -
22/07:30pm 20.3 SSW 14 19 1009.9 - 2.4 - - - - - - -
22/07:00pm 21.8 SSW 15 19 1009.2 - 2.4 - - - - - - -
22/06:30pm 22.5 WSW 16 20 1008.4 - 2.4 - - - - - - -
22/06:00pm 23.3 WSW 17 21 1008.2 - 2.4 - - - - - - -
22/05:30pm 23.3 WSW 16 22 1008.0 - 2.4 - - - - - - -
22/05:00pm 23.6 W 15 19 1007.7 - 2.4 - - - - - - -
22/04:30pm 23.3 W 15 18 1007.6 - 2.4 - - - - - - -
22/04:00pm 23.2 W 14 17 1007.3 - 2.4 - - - - - - -
22/03:30pm 23.1 WSW 14 19 1007.2 - 2.4 - - - - - - -
22/03:00pm 22.9 WSW 15 18 1007.3 - 2.4 Recent precip. - - - - - -
22/02:30pm 21.8 WSW 14 19 1007.0 - 2.4 - - - - - - -
22/02:00pm 20.6 WNW 6 12 1008.1 - 2.2 - - - - - - -
22/01:30pm 23.1 W 7 10 1007.2 - 2.2 - - - - - - -
22/01:00pm 20.7 NW 9 13 1008.4 - 2.2 - - - - - - -
22/12:30pm 21.8 NW 5 8 1007.6 - 2.2 - - - - - - -
22/12:00pm 23.2 W 8 9 1007.1 - 1.8 Recent precip. - - - - - -
22/11:30am 22.6 N 6 9 1006.7 - 1.4 - - - - - - -
22/11:00am 21.7 N 12 17 1006.4 - 0.6 - - - - - - -
22/10:30am 20.7 NNE 11 14 1006.9 - 0.6 - - - - - - -
22/10:00am 19.4 NNE 11 13 1007.5 - 0.6 - - - - - - -
22/09:48am 19.3 W 6 12 1008.7 - 0.4 - - - - - - -
22/09:30am 19.4 N 7 10 1006.7 - 0.4 - - - - - - -
22/09:00am 17.6 N 8 9 1007.8 - 5.6 Rain - - - - - -
22/08:30am 18.0 ENE 9 14 1007.0 - 2.6 - - - - - - -
22/08:11am 17.9 SW 7 9 1007.1 - 2.0 - - - - - - -
22/08:00am 18.2 WNW 9 11 1009.1 - 1.4 - - - - - - -
22/07:30am 19.0 W 13 16 1008.1 - 0.6 - - - - - - -
22/07:00am 18.4 NW 7 8 1006.9 - 0.6 - - - - - - -
22/06:30am 19.0 NW 11 15 1007.0 - 0.6 - - - - - - -
22/06:23am 20.3 NW 12 15 1007.3 - 0.0 - - - - - - -
22/06:00am 21.4 N 13 17 1005.3 - 0.0 - - - - - - -
22/05:30am 22.4 N 20 27 1004.7 - 0.0 - - - - - - -
22/05:06am 23.6 N 21 31 1004.8 - 0.0 - - - - - - -
22/05:00am 23.4 N 18 25 1005.1 - 0.0 - - - - - - -
22/04:58am 23.4 N 17 25 1005.3 - 0.0 - - - - - - -
22/04:30am 23.8 N 11 14 1005.3 - 0.0 - - - - - - -
22/04:00am 23.9 NNE 13 16 1004.3 - 0.0 - - - - - - -
22/03:30am 24.1 NE 19 24 1004.0 - 0.0 - - - - - - -
22/03:00am 23.8 NE 19 25 1004.3 - 0.0 - - - - - - -
22/02:30am 22.6 NE 18 24 1004.7 - 0.0 - - - - - - -
22/02:00am 22.1 NE 19 24 1004.8 - 0.0 - - - - - - -
22/01:30am 21.6 NE 18 22 1005.5 - 0.0 - - - - - - -
22/01:00am 20.8 NE 15 19 1006.1 - 0.0 - - - - - - -
22/12:30am 20.9 ENE 16 20 1006.1 - 0.0 - - - - - - -
22/12:00am 20.8 ENE 17 19 1006.7 - 0.0 - - - - - - -
 
Date/Time
CDT
Temp

°C
Wind Pressure Rain
since 9am
mm
Weather Cloud Vis
km
Sea
Height
m
Swell
Dir
 
Speed
knots
Gust
knots
hPa Trend Height
m
Period
s
Dir
21/11:30pm 20.5 ENE 15 18 1007.5 - 0.0 - - - - - - -
21/11:00pm 20.0 ENE 15 18 1008.1 - 0.0 - - - - - - -
21/10:30pm 20.2 ENE 14 17 1008.5 - 0.0 - - - - - - -
21/10:00pm 19.2 ENE 13 17 1008.7 - 0.0 - - - - - - -
21/09:30pm 19.3 E 12 15 1008.9 - 0.0 - - - - - - -
21/09:00pm 19.6 E 12 15 1009.1 - 0.0 - - - - - - -
21/08:30pm 20.7 E 13 16 1009.0 - 0.0 - - - - - - -
21/08:00pm 22.9 E 12 15 1009.1 - 0.0 - - - - - - -
21/07:30pm 25.1 E 7 8 1009.2 - 0.0 - - - - - - -
21/07:00pm 25.3 NE 1 4 1009.4 - 0.0 - - - - - - -
21/06:30pm 25.5 WNW 3 5 1009.6 - 0.0 - - - - - - -
21/06:00pm 24.9 NNW 4 6 1009.8 - 0.0 - - - - - - -
21/05:30pm 24.7 W 4 5 1010.0 - 0.0 - - - - - - -
21/05:00pm 23.7 WNW 6 8 1010.3 - 0.0 - - - - - - -
21/04:30pm 23.2 WNW 7 9 1010.4 - 0.0 - - - - - - -
21/04:00pm 23.9 WNW 8 11 1010.7 - 0.0 - - - - - - -
21/03:30pm 25.0 W 7 10 1010.9 - 0.0 - - - - - - -
21/03:00pm 23.5 WNW 8 13 1011.3 - 0.0 - - - - - - -
21/02:30pm 22.7 WNW 9 12 1011.6 - 0.0 - - - - - - -
21/02:00pm 22.1 WNW 10 19 1011.9 - 0.0 - - - - - - -
21/01:30pm 21.4 NW 7 12 1012.2 - 0.0 - - - - - - -
21/01:00pm 21.5 NW 11 16 1012.7 - 0.0 - - - - - - -
21/12:30pm 21.0 NW 11 15 1013.0 - 0.0 - - - - - - -
21/12:00pm 21.0 NW 11 15 1013.1 - 0.0 - - - - - - -
21/11:30am 20.2 NW 10 14 1013.3 - 0.0 - - - - - - -
21/11:00am 19.4 NW 11 16 1013.4 - 0.0 - - - - - - -
21/10:30am 19.7 NW 11 15 1013.4 - 0.0 - - - - - - -
21/10:00am 19.7 NW 8 11 1013.4 - 0.0 - - - - - - -
21/09:30am 18.1 WNW 8 11 1013.4 - 0.0 - - - - - - -
21/09:00am 18.4 NW 7 13 1013.2 - 0.2 - - - - - - -
21/08:30am 17.5 WNW 6 9 1013.0 - 0.2 - - - - - - -
21/08:00am 16.9 NNW 2 5 1012.8 - 0.2 - - - - - - -
21/07:30am 15.3 ENE 5 6 1012.3 - 0.2 - - - - - - -
21/07:00am 13.2 E 6 6 1012.4 - 0.2 - - - - - - -
21/06:30am 10.1 ESE 4 5 1012.3 - 0.2 - - - - - - -
21/06:00am 10.3 S 3 4 1012.1 - 0.2 - - - - - - -
21/05:30am 12.6 SSW 5 7 1011.8 - 0.2 - - - - - - -
21/05:00am 14.5 SW 8 11 1011.9 - 0.2 - - - - - - -
21/04:30am 14.8 SSW 6 9 1011.8 - 0.2 - - - - - - -
21/04:00am 14.6 WNW 4 5 1011.7 - 0.2 - - - - - - -
21/03:30am 14.9 W 5 6 1011.9 - 0.2 - - - - - - -
21/03:00am 14.9 CALM 0 3 1011.9 - 0.2 - - - - - - -
21/02:30am 15.0 SW 5 7 1012.1 - 0.2 - - - - - - -
21/02:00am 15.4 WSW 9 11 1012.5 - 0.2 - - - - - - -
21/01:30am 14.9 WSW 7 9 1012.6 - 0.2 - - - - - - -
21/01:00am 14.4 SW 8 11 1012.7 - 0.2 - - - - - - -
21/12:30am 15.3 SW 11 15 1012.5 - 0.2 - - - - - - -
21/12:00am 14.8 SW 9 11 1012.6 - 0.2 - - - - - - -
 
Date/Time
CDT
Temp

°C
Wind Pressure Rain
since 9am
mm
Weather Cloud Vis
km
Sea
Height
m
Swell
Dir
 
Speed
knots
Gust
knots
hPa Trend Height
m
Period
s
Dir
20/11:30pm 14.7 SW 11 13 1012.6 - 0.2 - - - - - - -
20/11:00pm 16.0 SW 11 15 1012.4 - 0.2 - - - - - - -
20/10:30pm 16.0 SW 13 15 1012.1 - 0.2 - - - - - - -
20/10:00pm 16.4 WSW 12 16 1012.1 - 0.2 - - - - - - -
20/09:30pm 16.6 WSW 15 20 1011.9 - 0.2 - - - - - - -
20/09:00pm 16.8 WSW 15 20 1011.5 - 0.2 - - - - - - -
20/08:30pm 17.1 WSW 15 21 1010.8 - 0.2 - - - - - - -
20/08:00pm 17.4 WSW 16 21 1010.6 - 0.2 - - - - - - -
20/07:30pm 17.5 WSW 14 18 1010.0 - 0.2 - - - - - - -
20/07:00pm 18.6 WSW 16 20 1009.6 - 0.2 - - - - - - -
20/06:30pm 18.1 WSW 15 21 1009.0 - 0.2 - - - - - - -
20/06:00pm 18.6 WSW 19 23 1008.8 - 0.2 - - - - - - -
20/05:30pm 19.2 WSW 23 27 1008.4 - 0.2 - - - - - - -
20/05:00pm 20.5 W 23 29 1008.3 - 0.2 - - - - - - -
20/04:30pm 21.0 W 22 27 1007.9 - 0.2 - - - - - - -
20/04:00pm 21.5 W 20 24 1007.6 - 0.2 - - - - - - -
20/03:30pm 21.0 W 20 24 1007.7 - 0.2 - - - - - - -
20/03:00pm 21.0 WSW 22 28 1007.6 - 0.2 - - - - - - -
20/02:30pm 22.0 W 19 24 1007.6 - 0.2 - - - - - - -
20/02:00pm 22.0 W 19 24 1008.1 - 0.2 - - - - - - -
20/01:30pm 21.9 W 18 24 1008.3 - 0.2 - - - - - - -
20/01:00pm 21.3 NNW 18 23 1008.4 - 0.2 - - - - - - -
20/12:30pm 22.3 NNW 18 24 1008.2 - 0.2 - - - - - - -
20/12:00pm 21.7 NNW 17 23 1008.6 - 0.2 - - - - - - -

Other Formats:

Comma delimited format used in spreadsheet applications
http://www.bom.gov.au/fwo/IDS60701/IDS60701.95659.axf

JavaScript Object Notation format (JSON) in row-major order
http://www.bom.gov.au/fwo/IDS60701/IDS60701.95659.json